Macon, Mississippi
Current Conditions -  °F | °C
As of 4:45 PM on Friday 31 Oct 2014 (Local Time) from KGTR Reporting Station
Broken Clouds Broken Clouds  
Wind Chill: 59°   Ceiling: 4500
Heat Index: 59°   Visibility: 10mi
Dew Point: 46°   Wind: 17mph
Humidity: 63%   Direction: 330°NNW
Pressure: 30.06"   Gusts: 26mph
Location:  33.11°N, 88.56°W
Report Text: KGTR 312145Z 33015G23KT 10SM BKN045 BKN065 15/08 A3006
Loading
Personal Weather Stations






























Interactive Weather Map
Tropical Storm Tracking
New forecast layout! Learn more

10-Day Weather Forecast

Advertisements
Track Severe Weather on mobile